createdAt,value
2022-09-23T00:00:52.515Z,1003.937012
2022-09-23T00:01:48.934Z,1003.92688
2022-09-23T00:02:50.185Z,1003.951111
2022-09-23T00:03:44.673Z,1003.938721
2022-09-23T00:04:46.631Z,1003.948914
2022-09-23T00:05:43.854Z,1003.91626
2022-09-23T00:07:44.066Z,1003.918335
2022-09-23T00:08:43.018Z,1003.946655
2022-09-23T00:09:37.390Z,1003.895874
2022-09-23T00:10:36.748Z,1003.916077
2022-09-23T00:11:32.016Z,1003.940491
2022-09-23T00:12:31.049Z,1003.895874
2022-09-23T00:13:26.836Z,1003.844849
2022-09-23T00:14:25.934Z,1003.857117
2022-09-23T00:15:21.104Z,1003.875183
2022-09-23T00:16:20.835Z,1003.893616
2022-09-23T00:18:17.774Z,1003.87915
2022-09-23T00:19:14.215Z,1003.86499
2022-09-23T00:20:13.944Z,1003.90564
2022-09-23T00:21:08.626Z,1003.871155
2022-09-23T00:23:02.438Z,1003.850952
2022-09-23T00:24:04.341Z,1003.84259
2022-09-23T00:24:58.851Z,1003.798035
2022-09-23T00:26:01.055Z,1003.861023
2022-09-23T00:26:53.678Z,1003.785767
2022-09-23T00:27:55.688Z,1003.85498
2022-09-23T00:28:49.059Z,1003.812195
2022-09-23T00:29:52.052Z,1003.844849
2022-09-23T00:30:44.604Z,1003.810364
2022-09-23T00:31:45.823Z,1003.832886
2022-09-23T00:32:47.640Z,1003.767639
2022-09-23T00:33:42.155Z,1003.804199
2022-09-23T00:34:47.411Z,1003.840759
2022-09-23T00:36:17.584Z,1003.838684
2022-09-23T00:36:57.656Z,1003.847046
2022-09-23T00:37:58.250Z,1003.828918
2022-09-23T00:38:56.523Z,1003.836975
2022-09-23T00:39:54.595Z,1003.794189
2022-09-23T00:40:54.190Z,1003.830811
2022-09-23T00:42:52.024Z,1003.802124
2022-09-23T00:43:52.183Z,1003.826721
2022-09-23T00:44:51.615Z,1003.757507
2022-09-23T00:45:47.011Z,1003.759399
2022-09-23T00:46:47.200Z,1003.712646
2022-09-23T00:47:45.102Z,1003.759399
2022-09-23T00:48:45.321Z,1003.761475
2022-09-23T00:49:40.657Z,1003.769531
2022-09-23T00:50:45.340Z,1003.710449
2022-09-23T00:51:44.494Z,1003.698425
2022-09-23T00:52:44.015Z,1003.698425
2022-09-23T00:53:47.443Z,1003.743042
2022-09-23T00:54:45.905Z,1003.720642
2022-09-23T00:55:45.569Z,1003.659668
2022-09-23T00:57:44.075Z,1003.623108
2022-09-23T00:58:39.278Z,1003.686157
2022-09-23T00:59:37.581Z,1003.657593
2022-09-23T01:00:33.966Z,1003.657593
2022-09-23T01:01:40.602Z,1003.637329
2022-09-23T01:02:40.510Z,1003.68219
2022-09-23T01:03:39.366Z,1003.623108
2022-09-23T01:04:39.991Z,1003.606873
2022-09-23T01:06:45.891Z,1003.627686
2022-09-23T01:07:29.449Z,1003.69281
2022-09-23T01:08:29.104Z,1003.654053
2022-09-23T01:09:31.826Z,1003.560608
2022-09-23T01:10:31.447Z,1003.615295
2022-09-23T01:12:29.222Z,1003.662048
2022-09-23T01:13:26.359Z,1003.682373
2022-09-23T01:14:29.328Z,1003.617126
2022-09-23T01:15:25.683Z,1003.568115
2022-09-23T01:16:31.659Z,1003.576416
2022-09-23T01:17:25.777Z,1003.610962
2022-09-23T01:18:29.277Z,1003.570313
2022-09-23T01:19:25.494Z,1003.598572
2022-09-23T01:20:27.633Z,1003.549683
2022-09-23T01:22:25.965Z,1003.533264
2022-09-23T01:23:28.337Z,1003.580017
2022-09-23T01:24:25.091Z,1003.547363
2022-09-23T01:25:28.087Z,1003.533203
2022-09-23T01:27:27.985Z,1003.506775
2022-09-23T01:28:24.366Z,1003.498413
2022-09-23T01:29:28.892Z,1003.533203
2022-09-23T01:30:23.219Z,1003.551331
2022-09-23T01:31:23.822Z,1003.382629
2022-09-23T01:32:23.919Z,1003.46814
2022-09-23T01:33:26.542Z,1003.523132
2022-09-23T01:34:32.430Z,1003.439453
2022-09-23T01:35:36.307Z,1003.492371
2022-09-23T01:37:47.828Z,1003.475952
2022-09-23T01:38:28.026Z,1003.477783
2022-09-23T01:39:09.853Z,1003.402893
2022-09-23T01:40:08.348Z,1003.429749
2022-09-23T01:41:15.465Z,1003.419678
2022-09-23T01:43:10.868Z,1003.447876
2022-09-23T01:44:12.761Z,1003.407288
2022-09-23T01:45:13.549Z,1003.360596
2022-09-23T01:46:08.814Z,1003.370789
2022-09-23T01:48:08.909Z,1003.39502
2022-09-23T01:49:11.889Z,1003.364502
2022-09-23T01:50:11.089Z,1003.311707
2022-09-23T01:51:08.900Z,1003.348267
2022-09-23T01:53:04.878Z,1003.401123
2022-09-23T01:54:06.457Z,1003.386536
2022-09-23T01:55:05.719Z,1003.354004
2022-09-23T01:56:08.384Z,1003.327576
2022-09-23T01:57:06.424Z,1003.345703
2022-09-23T01:58:05.490Z,1003.373901
2022-09-23T01:59:01.678Z,1003.306885
2022-09-23T02:00:01.352Z,1003.333252
2022-09-23T02:00:58.024Z,1003.318848
2022-09-23T02:01:58.375Z,1003.34967
2022-09-23T02:03:02.192Z,1003.394165
2022-09-23T02:04:01.735Z,1003.34967
2022-09-23T02:05:06.763Z,1003.361572
2022-09-23T02:06:08.600Z,1003.345215
2022-09-23T02:07:05.989Z,1003.333252
2022-09-23T02:08:05.827Z,1003.355286
2022-09-23T02:09:44.669Z,1003.301575
2022-09-23T02:12:04.045Z,1003.266357
2022-09-23T02:12:44.526Z,1003.34375
2022-09-23T02:13:47.369Z,1003.250305
2022-09-23T02:14:45.635Z,1003.207336
2022-09-23T02:15:40.850Z,1003.260315
2022-09-23T02:17:39.357Z,1003.241577
2022-09-23T02:18:43.926Z,1003.282166
2022-09-23T02:19:42.665Z,1003.174194
2022-09-23T02:20:41.254Z,1003.241272
2022-09-23T02:22:38.877Z,1003.228882
2022-09-23T02:23:38.191Z,1003.251404
2022-09-23T02:24:32.598Z,1003.210449
2022-09-23T02:25:29.436Z,1003.186157
2022-09-23T02:26:27.529Z,1003.220642
2022-09-23T02:28:22.902Z,1003.167725
2022-09-23T02:29:19.281Z,1003.194214
2022-09-23T02:30:16.918Z,1003.15979
2022-09-23T02:31:15.073Z,1003.108765
2022-09-23T02:33:30.114Z,1003.141235
2022-09-23T02:34:21.680Z,1003.096436
2022-09-23T02:35:17.006Z,1003.05188
2022-09-23T02:36:17.062Z,1003.062012
2022-09-23T02:37:10.560Z,1003.033447
2022-09-23T02:38:11.465Z,1003.007019
2022-09-23T02:39:04.238Z,1003.039551
2022-09-23T02:40:49.819Z,1002.932007
2022-09-23T02:41:30.794Z,1002.974976
2022-09-23T02:42:30.832Z,1002.952637
2022-09-23T02:43:29.779Z,1002.94458
2022-09-23T02:44:28.707Z,1002.912048
2022-09-23T02:45:24.958Z,1002.948608
2022-09-23T02:46:25.650Z,1002.893616
2022-09-23T02:47:26.214Z,1002.912048
2022-09-23T02:48:26.672Z,1002.956543
2022-09-23T02:49:26.462Z,1002.895752
2022-09-23T02:50:28.860Z,1002.897583
2022-09-23T02:51:24.343Z,1002.88562
2022-09-23T02:53:25.204Z,1002.899658
2022-09-23T02:54:20.167Z,1002.893616
2022-09-23T02:55:26.623Z,1002.852966
2022-09-23T02:56:20.804Z,1002.859192
2022-09-23T02:58:17.024Z,1002.840698
2022-09-23T02:59:21.239Z,1002.881226
2022-09-23T03:00:18.484Z,1002.877319
2022-09-23T03:01:21.319Z,1002.804138
2022-09-23T03:03:18.129Z,1002.81427
2022-09-23T03:04:19.891Z,1002.740784
2022-09-23T03:05:12.493Z,1002.802002
2022-09-23T03:06:16.185Z,1002.877319
2022-09-23T03:07:12.561Z,1002.797974
2022-09-23T03:08:13.477Z,1002.805908
2022-09-23T03:09:10.463Z,1002.726746
2022-09-23T03:10:09.306Z,1002.820129
2022-09-23T03:11:06.433Z,1002.820129
2022-09-23T03:12:07.714Z,1002.749146
2022-09-23T03:13:09.001Z,1002.781433
2022-09-23T03:14:55.284Z,1002.722656
2022-09-23T03:15:36.373Z,1002.759216
2022-09-23T03:16:34.576Z,1002.753418
2022-09-23T03:17:34.974Z,1002.724854
2022-09-23T03:18:30.202Z,1002.712524
2022-09-23T03:19:31.264Z,1002.706421
2022-09-23T03:20:25.712Z,1002.736877
2022-09-23T03:21:32.245Z,1002.728882
2022-09-23T03:22:31.221Z,1002.687988
2022-09-23T03:23:26.546Z,1002.700317
2022-09-23T03:24:25.627Z,1002.714355
2022-09-23T03:25:21.700Z,1002.781433
2022-09-23T03:26:20.754Z,1002.728577
2022-09-23T03:28:20.223Z,1002.773132
2022-09-23T03:29:12.876Z,1002.703918
2022-09-23T03:30:10.903Z,1002.711853
2022-09-23T03:31:12.448Z,1002.661255
2022-09-23T03:33:16.904Z,1002.67749
2022-09-23T03:34:11.270Z,1002.722046
2022-09-23T03:35:10.948Z,1002.636658
2022-09-23T03:36:12.848Z,1002.679382
2022-09-23T03:38:12.889Z,1002.685181
2022-09-23T03:39:14.942Z,1002.632324
2022-09-23T03:40:10.271Z,1002.658752
2022-09-23T03:41:13.965Z,1002.650452
2022-09-23T03:42:12.935Z,1002.675293
2022-09-23T03:43:14.505Z,1002.583435
2022-09-23T03:44:15.034Z,1002.709351
2022-09-23T03:45:10.377Z,1002.623901
2022-09-23T03:46:42.638Z,1002.595398
2022-09-23T03:48:21.550Z,1002.666626
2022-09-23T03:49:26.980Z,1002.609558
2022-09-23T03:50:23.350Z,1002.674561
2022-09-23T03:51:19.843Z,1002.676392
2022-09-23T03:52:19.616Z,1002.708984
2022-09-23T03:53:15.036Z,1002.676392
2022-09-23T03:54:24.064Z,1002.664063
2022-09-23T03:55:25.733Z,1002.670166
2022-09-23T03:56:24.954Z,1002.643738
2022-09-23T03:57:28.150Z,1002.592712
2022-09-23T03:58:32.295Z,1002.594849
2022-09-23T03:59:30.482Z,1002.582642
2022-09-23T04:00:30.824Z,1002.611084
2022-09-23T04:01:26.129Z,1002.602783
2022-09-23T04:03:22.332Z,1002.620789
2022-09-23T04:04:24.442Z,1002.578125
2022-09-23T04:05:21.217Z,1002.576233
2022-09-23T04:06:22.264Z,1002.580322
2022-09-23T04:07:18.794Z,1002.619141
2022-09-23T04:08:27.562Z,1002.537659
2022-09-23T04:09:23.065Z,1002.547791
2022-09-23T04:10:23.548Z,1002.466248
2022-09-23T04:11:27.441Z,1002.512939
2022-09-23T04:13:29.017Z,1002.454346
2022-09-23T04:14:32.076Z,1002.464539
2022-09-23T04:15:27.348Z,1002.490967
2022-09-23T04:16:30.279Z,1002.429749
2022-09-23T04:18:35.671Z,1002.42749
2022-09-23T04:19:33.156Z,1002.41333
2022-09-23T04:20:32.023Z,1002.370605
2022-09-23T04:22:32.629Z,1002.397034
2022-09-23T04:23:35.553Z,1002.394836
2022-09-23T04:24:37.813Z,1002.412903
2022-09-23T04:25:42.480Z,1002.406738
2022-09-23T04:27:37.907Z,1002.362183
2022-09-23T04:28:39.602Z,1002.374146
2022-09-23T04:29:34.663Z,1002.376221
2022-09-23T04:30:36.307Z,1002.323425
2022-09-23T04:33:06.673Z,1002.287048
2022-09-23T04:34:50.441Z,1002.228577
2022-09-23T04:35:45.258Z,1002.247192
2022-09-23T04:37:41.440Z,1002.218933
2022-09-23T04:38:44.195Z,1002.269531
2022-09-23T04:39:44.258Z,1002.320129
2022-09-23T04:40:44.713Z,1002.246582
2022-09-23T04:42:49.848Z,1002.256592
2022-09-23T04:43:54.408Z,1002.248291
2022-09-23T04:44:48.561Z,1002.272888
2022-09-23T04:46:28.356Z,1002.218445
2022-09-23T04:48:14.483Z,1002.100952
2022-09-23T04:48:54.268Z,1002.121277
2022-09-23T04:49:55.524Z,1002.119446
2022-09-23T04:49:59.883Z,1002.119446
2022-09-23T04:50:52.725Z,1002.054321
2022-09-23T04:52:47.879Z,1002.037659
2022-09-23T04:53:43.277Z,1002.023438
2022-09-23T04:54:44.296Z,1002.143127
2022-09-23T04:55:39.355Z,1002.132629
2022-09-23T04:56:38.386Z,1002.081848
2022-09-23T04:57:37.389Z,1002.103882
2022-09-23T04:58:35.837Z,1002.124207
2022-09-23T04:59:30.222Z,1002.10376
2022-09-23T05:00:31.362Z,1002.034668
2022-09-23T05:01:24.348Z,1002.071228
2022-09-23T05:02:27.437Z,1002.091431
2022-09-23T05:03:19.020Z,1002.101563
2022-09-23T05:04:20.819Z,1002.065002
2022-09-23T05:05:16.235Z,1002.076904
2022-09-23T05:06:19.124Z,1002.087036
2022-09-23T05:07:21.907Z,1002.010132
2022-09-23T05:08:23.076Z,1002.026428
2022-09-23T05:09:14.545Z,1002.030334
2022-09-23T05:10:13.218Z,1002.022339
2022-09-23T05:11:13.205Z,1002.003906
2022-09-23T05:13:11.094Z,1002.034241
2022-09-23T05:14:17.450Z,1002.093201
2022-09-23T05:15:14.046Z,1002.085205
2022-09-23T05:16:13.264Z,1002.18866
2022-09-23T05:18:06.518Z,1002.156067
2022-09-23T05:19:01.135Z,1002.162109
2022-09-23T05:20:01.662Z,1002.208679
2022-09-23T05:20:55.439Z,1002.21875
2022-09-23T05:22:52.369Z,1002.194214
2022-09-23T05:23:52.246Z,1002.108826
2022-09-23T05:24:49.049Z,1002.165466
2022-09-23T05:25:46.477Z,1002.112671
2022-09-23T05:27:40.350Z,1002.151245
2022-09-23T05:28:39.515Z,1002.187744
2022-09-23T05:29:35.002Z,1002.142944
2022-09-23T05:30:36.062Z,1002.161377
2022-09-23T05:32:31.212Z,1002.137329
2022-09-23T05:33:22.740Z,1002.181824
2022-09-23T05:34:23.881Z,1002.118896
2022-09-23T05:35:15.316Z,1002.127197
2022-09-23T05:36:12.404Z,1002.123291
2022-09-23T05:38:58.285Z,1002.127319
2022-09-23T05:39:40.214Z,1002.1297
2022-09-23T05:40:37.470Z,1002.160461
2022-09-23T05:41:40.056Z,1002.162842
2022-09-23T05:42:38.103Z,1002.117981
2022-09-23T05:43:39.156Z,1002.128113
2022-09-23T05:44:38.201Z,1002.132019
2022-09-23T05:45:44.939Z,1002.164368
2022-09-23T05:46:39.531Z,1002.164368
2022-09-23T05:47:44.220Z,1002.131775
2022-09-23T05:48:42.107Z,1002.093018
2022-09-23T05:49:58.497Z,1002.176086
2022-09-23T05:49:59.054Z,1002.176086
2022-09-23T05:49:59.595Z,1002.176086
2022-09-23T05:50:40.308Z,1002.11322
2022-09-23T05:52:35.770Z,1002.180725
2022-09-23T05:53:31.003Z,1002.131775
2022-09-23T05:54:30.470Z,1002.174561
2022-09-23T05:55:25.130Z,1002.231384
2022-09-23T05:56:25.423Z,1002.178589
2022-09-23T05:57:20.627Z,1002.142029
2022-09-23T05:58:23.116Z,1002.197021
2022-09-23T05:59:15.889Z,1002.121704
2022-09-23T06:00:16.150Z,1002.168274
2022-09-23T06:01:11.538Z,1002.178467
2022-09-23T06:03:14.635Z,1002.232971
2022-09-23T06:04:09.964Z,1002.157654
2022-09-23T06:05:11.354Z,1002.166016
2022-09-23T06:06:11.531Z,1002.11322
2022-09-23T06:07:03.930Z,1002.251404
2022-09-23T06:08:03.362Z,1002.163879
2022-09-23T06:09:05.544Z,1002.188416
2022-09-23T06:09:59.182Z,1002.152039
2022-09-23T06:10:58.333Z,1002.170105
2022-09-23T06:12:55.393Z,1002.123535
2022-09-23T06:13:50.625Z,1002.152039
2022-09-23T06:14:49.431Z,1002.170105
2022-09-23T06:15:45.846Z,1002.159973
2022-09-23T06:16:45.896Z,1002.156067
2022-09-23T06:17:40.277Z,1002.168274
2022-09-23T06:18:44.955Z,1002.202637
2022-09-23T06:19:37.519Z,1002.166199
2022-09-23T06:20:39.577Z,1002.210938
2022-09-23T06:21:33.916Z,1002.144226
2022-09-23T06:22:40.132Z,1002.135925
2022-09-23T06:23:32.999Z,1002.170654
2022-09-23T06:24:36.049Z,1002.150391
2022-09-23T06:25:28.776Z,1002.184753
2022-09-23T06:26:25.144Z,1002.182983
2022-09-23T06:28:48.556Z,1002.193298
2022-09-23T06:29:28.536Z,1002.199463
2022-09-23T06:30:27.690Z,1002.142761
2022-09-23T06:31:28.796Z,1002.165161
2022-09-23T06:33:36.297Z,1002.171326
2022-09-23T06:33:36.778Z,1002.171326
2022-09-23T06:33:37.456Z,1002.171326
2022-09-23T06:34:25.711Z,1002.139221
2022-09-23T06:35:27.021Z,1002.206177
2022-09-23T06:35:27.816Z,1002.206177
2022-09-23T06:36:40.990Z,1002.108887
2022-09-23T06:36:42.083Z,1002.108887
2022-09-23T06:36:43.064Z,1002.108887
2022-09-23T06:38:20.201Z,1002.111572
2022-09-23T06:39:23.219Z,1002.095337
2022-09-23T06:40:17.599Z,1002.117676
2022-09-23T06:41:17.835Z,1002.125916
2022-09-23T06:42:13.269Z,1002.174866
2022-09-23T06:43:14.988Z,1002.178833
2022-09-23T06:44:10.241Z,1002.124146
2022-09-23T06:45:11.429Z,1002.163147
2022-09-23T06:46:07.017Z,1002.102356
2022-09-23T06:48:03.765Z,1002.18158
2022-09-23T06:49:03.373Z,1002.151123
2022-09-23T06:49:58.692Z,1002.130798
2022-09-23T06:51:01.684Z,1002.116638
2022-09-23T06:52:52.599Z,1002.09845
2022-09-23T06:53:52.923Z,1002.086426
2022-09-23T06:54:48.339Z,1002.082336
2022-09-23T06:55:51.273Z,1002.131104
2022-09-23T06:57:47.744Z,1002.149536
2022-09-23T06:58:41.331Z,1002.116821
2022-09-23T06:59:45.549Z,1002.118896
2022-09-23T07:00:39.903Z,1002.131042
2022-09-23T07:02:36.009Z,1002.157593
2022-09-23T07:03:39.033Z,1002.16156
2022-09-23T07:04:32.165Z,1002.155457
2022-09-23T07:05:36.966Z,1002.185852
2022-09-23T07:07:34.929Z,1002.151184
2022-09-23T07:08:31.148Z,1002.122803
2022-09-23T07:10:09.253Z,1002.138916
2022-09-23T07:10:49.292Z,1002.183533
2022-09-23T07:12:47.893Z,1002.177185
2022-09-23T07:13:43.147Z,1002.242188
2022-09-23T07:14:44.702Z,1002.150696
2022-09-23T07:15:40.122Z,1002.201416
2022-09-23T07:17:34.898Z,1002.179077
2022-09-23T07:18:36.914Z,1002.195313
2022-09-23T07:19:31.449Z,1002.166626
2022-09-23T07:20:31.882Z,1002.170471
2022-09-23T07:21:27.346Z,1002.111389
2022-09-23T07:23:22.987Z,1002.10498
2022-09-23T07:24:22.696Z,1002.102966
2022-09-23T07:25:17.767Z,1002.137512
2022-09-23T07:26:18.225Z,1002.117371
2022-09-23T07:28:13.966Z,1002.127441
2022-09-23T07:29:09.237Z,1002.149658
2022-09-23T07:30:17.025Z,1002.190186
2022-09-23T07:30:23.839Z,1002.190186
2022-09-23T07:30:24.825Z,1002.190186
2022-09-23T07:31:07.666Z,1002.22876
2022-09-23T07:33:11.679Z,1002.230469
2022-09-23T07:33:25.478Z,1002.230469
2022-09-23T07:33:29.582Z,1002.230469
2022-09-23T07:34:02.481Z,1002.238281
2022-09-23T07:34:57.927Z,1002.15033
2022-09-23T07:35:58.707Z,1002.190796
2022-09-23T07:37:54.145Z,1002.227478
2022-09-23T07:38:49.340Z,1002.176819
2022-09-23T07:39:52.039Z,1002.256226
2022-09-23T07:40:45.648Z,1002.176819
2022-09-23T07:42:41.242Z,1002.227478
2022-09-23T07:43:41.325Z,1002.272522
2022-09-23T07:44:37.749Z,1002.331543
2022-09-23T07:45:40.613Z,1002.276245
2022-09-23T07:47:31.545Z,1002.202759
2022-09-23T07:48:34.457Z,1002.253723
2022-09-23T07:49:27.633Z,1002.224976
2022-09-23T07:50:25.650Z,1002.292358
2022-09-23T07:51:25.543Z,1002.292358
2022-09-23T07:52:26.744Z,1002.21875
2022-09-23T07:53:19.747Z,1002.32251
2022-09-23T07:53:58.813Z,1002.232727
2022-09-23T07:54:54.535Z,1002.281555
2022-09-23T07:56:33.967Z,1002.201721
2022-09-23T07:58:15.070Z,1002.243896
2022-09-23T07:59:11.470Z,1002.260132
2022-09-23T08:00:11.671Z,1002.31311
2022-09-23T08:01:07.448Z,1002.270386
2022-09-23T08:02:08.019Z,1002.302917
2022-09-23T08:03:06.572Z,1002.233582
2022-09-23T08:04:02.069Z,1002.274353
2022-09-23T08:05:02.499Z,1002.274353
2022-09-23T08:05:58.770Z,1002.282349
2022-09-23T08:07:55.251Z,1002.278137
2022-09-23T08:08:58.684Z,1002.302673
2022-09-23T08:09:53.049Z,1002.263489
2022-09-23T08:10:55.295Z,1002.163452
2022-09-23T08:11:49.443Z,1002.238647
2022-09-23T08:12:50.817Z,1002.236633
2022-09-23T08:13:46.675Z,1002.30365
2022-09-23T08:14:45.877Z,1002.256592
2022-09-23T08:15:53.280Z,1002.262512
2022-09-23T08:15:55.590Z,1002.262512
2022-09-23T08:16:45.345Z,1002.315613
2022-09-23T08:17:42.276Z,1002.235596
2022-09-23T08:18:50.230Z,1002.284363
2022-09-23T08:19:40.954Z,1002.322815
2022-09-23T08:20:37.389Z,1002.281616
2022-09-23T08:22:36.260Z,1002.297913
2022-09-23T08:23:32.001Z,1002.289673
2022-09-23T08:24:35.288Z,1002.328735
2022-09-23T08:25:33.768Z,1002.283691
2022-09-23T08:26:28.627Z,1002.291931
2022-09-23T08:29:12.229Z,1002.28717
2022-09-23T08:30:49.572Z,1002.25354
2022-09-23T08:31:28.702Z,1002.367188
2022-09-23T08:32:25.973Z,1002.272827
2022-09-23T08:33:25.828Z,1002.246338
2022-09-23T08:34:20.664Z,1002.256653
2022-09-23T08:35:20.445Z,1002.283142
2022-09-23T08:36:15.651Z,1002.283142
2022-09-23T08:37:15.060Z,1002.158752
2022-09-23T08:38:11.097Z,1002.228149
2022-09-23T08:39:09.903Z,1002.252258
2022-09-23T08:40:08.337Z,1002.237488
2022-09-23T08:41:04.424Z,1002.239075
2022-09-23T08:42:03.285Z,1002.218445
2022-09-23T08:42:59.087Z,1002.16687
2022-09-23T08:43:59.051Z,1002.170715
2022-09-23T08:44:56.123Z,1002.176575
2022-09-23T08:45:58.677Z,1002.194824
2022-09-23T08:46:51.137Z,1002.13385
2022-09-23T08:47:53.644Z,1002.194824
2022-09-23T08:48:46.187Z,1002.176575
2022-09-23T08:49:49.116Z,1002.176575
2022-09-23T08:50:42.517Z,1002.141785
2022-09-23T08:51:44.539Z,1002.231689
2022-09-23T08:52:37.119Z,1002.17865
2022-09-23T08:53:39.613Z,1002.237671
2022-09-23T08:54:34.757Z,1002.163879
2022-09-23T08:55:30.055Z,1002.212646
2022-09-23T08:56:29.528Z,1002.186096
2022-09-23T08:57:24.590Z,1002.175781
2022-09-23T08:58:25.930Z,1002.18396
2022-09-23T08:59:20.318Z,1002.120544
2022-09-23T09:00:19.717Z,1002.171265
2022-09-23T09:01:16.114Z,1002.158936
2022-09-23T09:02:16.338Z,1002.170715
2022-09-23T09:03:11.559Z,1002.131409
2022-09-23T09:04:13.999Z,1002.139709
2022-09-23T09:05:07.036Z,1002.121094
2022-09-23T09:06:05.032Z,1002.157959
2022-09-23T09:07:31.620Z,1002.176575
2022-09-23T09:07:35.709Z,1002.176575
2022-09-23T09:08:01.956Z,1002.184509
2022-09-23T09:08:59.605Z,1002.108643
2022-09-23T09:09:59.343Z,1002.132813
2022-09-23T09:10:54.576Z,1002.143188
2022-09-23T09:12:50.493Z,1002.209045
2022-09-23T09:14:24.759Z,1002.160889
2022-09-23T09:16:02.722Z,1002.16156
2022-09-23T09:16:58.901Z,1002.175476
2022-09-23T09:17:00.570Z,1002.175476
2022-09-23T09:17:00.999Z,1002.175476
2022-09-23T09:17:40.340Z,1002.227783
2022-09-23T09:18:40.261Z,1002.154053
2022-09-23T09:19:38.736Z,1002.188599
2022-09-23T09:20:34.123Z,1002.172363
2022-09-23T09:21:33.999Z,1002.158447
2022-09-23T09:23:28.844Z,1002.148804
2022-09-23T09:24:24.053Z,1002.116394
2022-09-23T09:25:23.565Z,1002.057373
2022-09-23T09:26:18.740Z,1002.104675
2022-09-23T09:27:21.051Z,1002.131226
2022-09-23T09:28:13.824Z,1002.107056
2022-09-23T09:29:34.332Z,1002.053894
2022-09-23T09:29:34.967Z,1002.053894
2022-09-23T09:29:36.212Z,1002.053894
2022-09-23T09:30:10.929Z,1002.059814
2022-09-23T09:31:13.723Z,1002.183655
2022-09-23T09:32:06.731Z,1002.067017
2022-09-23T09:33:06.917Z,1002.136414
2022-09-23T09:34:02.622Z,1002.150208
2022-09-23T09:35:03.010Z,1002.033569
2022-09-23T09:35:59.489Z,1002.002502
2022-09-23T09:37:04.675Z,1002.102173
2022-09-23T09:37:07.205Z,1002.102173
2022-09-23T09:38:00.899Z,1002.204041
2022-09-23T09:38:54.457Z,1002.085022
2022-09-23T09:39:55.228Z,1002.053894
2022-09-23T09:40:51.550Z,1002.082031
2022-09-23T09:42:49.431Z,1002.044067
2022-09-23T09:43:50.821Z,1002.000366
2022-09-23T09:44:47.281Z,1002.04657
2022-09-23T09:45:48.418Z,1002.039978
2022-09-23T09:47:49.050Z,1002.04248
2022-09-23T09:48:43.398Z,1002.080688
2022-09-23T09:49:47.471Z,1002.007996
2022-09-23T09:50:41.905Z,1002.009216
2022-09-23T09:52:43.650Z,1002.020752
2022-09-23T09:53:40.297Z,1002.063599
2022-09-23T09:54:36.473Z,1002.044983
2022-09-23T09:55:37.412Z,1002.02417
2022-09-23T09:56:33.753Z,1001.983765
2022-09-23T09:58:33.881Z,1002.019531
2022-09-23T09:59:30.612Z,1001.964233
2022-09-23T10:01:09.918Z,1001.899292
2022-09-23T10:02:52.032Z,1001.96405
2022-09-23T10:03:48.898Z,1001.927002
2022-09-23T10:04:47.973Z,1001.961853
2022-09-23T10:05:49.395Z,1001.895752
2022-09-23T10:07:46.525Z,1001.882019
2022-09-23T10:08:42.881Z,1001.87384
2022-09-23T10:09:44.177Z,1001.788208
2022-09-23T10:10:40.778Z,1001.910889
2022-09-23T10:11:42.200Z,1001.857666
2022-09-23T10:12:38.714Z,1001.87384
2022-09-23T10:13:42.555Z,1001.892517
2022-09-23T10:14:36.853Z,1001.90625
2022-09-23T10:15:41.235Z,1001.850769
2022-09-23T10:15:44.923Z,1001.850769
2022-09-23T10:16:36.865Z,1001.928223
2022-09-23T10:17:37.799Z,1001.87146
2022-09-23T10:18:34.117Z,1001.903931
2022-09-23T10:19:32.866Z,1001.834351
2022-09-23T10:20:33.963Z,1001.789429
2022-09-23T10:21:30.321Z,1001.828674
2022-09-23T10:22:34.138Z,1001.783691
2022-09-23T10:23:27.756Z,1001.853149
2022-09-23T10:24:31.514Z,1001.836853
2022-09-23T10:25:25.262Z,1001.832275
2022-09-23T10:26:29.044Z,1001.823975
2022-09-23T10:28:26.640Z,1001.835449
2022-09-23T10:29:20.351Z,1001.833374
2022-09-23T10:30:19.125Z,1001.78595
2022-09-23T10:31:20.438Z,1001.78595
2022-09-23T10:32:16.852Z,1001.759216
2022-09-23T10:33:18.134Z,1001.818298
2022-09-23T10:34:14.292Z,1001.799622
2022-09-23T10:35:18.418Z,1001.821533
2022-09-23T10:36:12.709Z,1001.858582
2022-09-23T10:38:09.394Z,1001.84021
2022-09-23T10:39:12.782Z,1001.866882
2022-09-23T10:40:07.027Z,1001.799622
2022-09-23T10:41:06.880Z,1001.756714
2022-09-23T10:42:48.926Z,1001.863281
2022-09-23T10:43:28.850Z,1001.754517
2022-09-23T10:44:27.009Z,1001.778748
2022-09-23T10:45:27.149Z,1001.78125
2022-09-23T10:47:45.186Z,1001.769714
2022-09-23T10:48:25.363Z,1001.687317
2022-09-23T10:49:23.168Z,1001.78125
2022-09-23T10:50:23.396Z,1001.809998
2022-09-23T10:51:22.686Z,1001.745239
2022-09-23T10:51:26.181Z,1001.745239
2022-09-23T10:52:19.586Z,1001.766113
2022-09-23T10:53:15.739Z,1001.702332
2022-09-23T10:54:15.483Z,1001.694458
2022-09-23T10:55:10.888Z,1001.678284
2022-09-23T10:56:11.113Z,1001.651611
2022-09-23T10:57:06.534Z,1001.727966
2022-09-23T10:58:06.761Z,1001.709534
2022-09-23T10:59:02.181Z,1001.719971
2022-09-23T11:00:04.983Z,1001.730469
2022-09-23T11:00:57.920Z,1001.738342
2022-09-23T11:02:00.568Z,1001.775391
2022-09-23T11:02:54.031Z,1001.650574
2022-09-23T11:03:56.233Z,1001.738342
2022-09-23T11:04:49.480Z,1001.668884
2022-09-23T11:05:49.494Z,1001.613525
2022-09-23T11:06:44.857Z,1001.615601
2022-09-23T11:07:45.130Z,1001.607727
2022-09-23T11:08:41.214Z,1001.650574
2022-09-23T11:09:41.202Z,1001.621399
2022-09-23T11:10:46.098Z,1001.603027
2022-09-23T11:10:49.879Z,1001.603027
2022-09-23T11:11:37.743Z,1001.603027
2022-09-23T11:12:33.202Z,1001.528931
2022-09-23T11:13:33.490Z,1001.499817
2022-09-23T11:14:28.961Z,1001.48938
2022-09-23T11:15:31.804Z,1001.46283
2022-09-23T11:16:24.837Z,1001.454834
2022-09-23T11:18:20.753Z,1001.446533
2022-09-23T11:19:18.385Z,1001.428223
2022-09-23T11:20:18.583Z,1001.430481
2022-09-23T11:21:13.930Z,1001.393372
2022-09-23T11:23:36.621Z,1001.399048
2022-09-23T11:24:16.666Z,1001.376099
2022-09-23T11:25:17.408Z,1001.318115
2022-09-23T11:26:13.644Z,1001.368896
2022-09-23T11:28:12.310Z,1001.315613
2022-09-23T11:29:08.330Z,1001.315613
2022-09-23T11:30:08.697Z,1001.323853
2022-09-23T11:31:04.572Z,1001.305176
2022-09-23T11:33:04.677Z,1001.27417
2022-09-23T11:34:01.974Z,1001.298584
2022-09-23T11:34:58.533Z,1001.304382
2022-09-23T11:35:59.314Z,1001.309998
2022-09-23T11:36:55.516Z,1001.304382
2022-09-23T11:37:56.310Z,1001.264709